Time;durP1;ratioP1;P1;durP2;ratioP2;P2;SDS_P1;SDS_P2;PMS_P1;PMS_P2;Temp;Humidity;BMP_temperature;BMP_pressure;BME280_temperature;BME280_humidity;BME280_pressure;Samples;Min_cycle;Max_cycle;Signal;HPM_P1;HPM_P2
2022/04/06 00:02:26;;;;;;;3.60;2.58;;;;;;;6.39;75.26;62655.25;5051215;28;20580;-78
2022/04/06 00:04:53;;;;;;;4.78;2.67;;;;;;;6.37;75.44;62650.66;5054268;28;20236;-77
2022/04/06 00:07:19;;;;;;;2.63;2.42;;;;;;;6.38;75.34;62657.28;5051439;28;20226;-78
2022/04/06 00:09:46;;;;;;;2.95;2.75;;;;;;;6.47;74.80;62666.03;5058699;28;20197;-77
2022/04/06 00:12:14;;;;;;;2.78;2.60;;;;;;;6.50;74.63;62667.13;5053290;28;20226;-78
2022/04/06 00:14:41;;;;;;;2.83;2.53;;;;;;;6.52;74.59;62671.69;5065485;28;20266;-78
2022/04/06 00:17:10;;;;;;;2.90;2.60;;;;;;;6.55;74.45;62669.22;5063863;28;20237;-78
2022/04/06 00:19:37;;;;;;;3.13;2.63;;;;;;;6.57;74.43;62671.81;5053993;28;20202;-78
2022/04/06 00:22:05;;;;;;;3.92;2.60;;;;;;;6.55;73.31;62672.28;5046013;28;20264;-78
2022/04/06 00:24:32;;;;;;;2.90;2.50;;;;;;;6.48;74.34;62662.00;5046739;28;20206;-77
2022/04/06 00:26:59;;;;;;;3.58;2.30;;;;;;;6.48;75.03;62662.00;5065321;28;20533;-78
2022/04/06 00:29:27;;;;;;;4.00;2.55;;;;;;;6.51;74.29;62667.63;5051324;28;20384;-78
2022/04/06 00:31:54;;;;;;;3.55;2.40;;;;;;;6.53;71.48;62672.22;5047459;28;20252;-78
2022/04/06 00:35:28;;;;;;;2.72;2.53;;;;;;;6.49;72.12;62663.53;5054729;28;20392;-78
2022/04/06 00:37:10;;;;;;;5.03;2.22;;;;;;;6.43;72.36;62664.97;5054013;28;20311;-78
2022/04/06 00:39:37;;;;;;;4.90;2.50;;;;;;;6.43;71.23;62657.38;5054612;28;20256;-78
2022/04/06 00:42:05;;;;;;;2.17;1.95;;;;;;;6.29;71.33;62645.47;5063746;28;20525;-77
2022/04/06 00:44:34;;;;;;;2.20;2.10;;;;;;;6.31;73.01;62647.00;5051921;28;20237;-77
2022/04/06 00:47:03;;;;;;;2.70;2.50;;;;;;;6.25;73.34;62646.38;5046735;28;20328;-78
2022/04/06 00:49:31;;;;;;;3.88;2.72;;;;;;;6.19;74.09;62630.09;5047210;28;20248;-77
2022/04/06 00:52:00;;;;;;;5.80;2.75;;;;;;;6.15;74.93;62633.03;5048569;28;20414;-78
2022/04/06 00:54:28;;;;;;;2.88;2.60;;;;;;;6.11;75.58;62626.91;5057627;28;20248;-78
2022/04/06 00:56:55;;;;;;;7.97;2.63;;;;;;;6.06;76.39;62619.22;5056960;28;20225;-78
2022/04/06 00:59:22;;;;;;;4.80;2.38;;;;;;;6.03;76.36;62615.59;5065796;28;20201;-77
2022/04/06 01:01:51;;;;;;;3.92;2.40;;;;;;;6.05;75.88;62625.78;5054340;28;20255;-78
2022/04/06 01:04:19;;;;;;;2.50;2.30;;;;;;;6.00;75.36;62615.56;5053650;28;20197;-78
2022/04/06 01:06:48;;;;;;;3.05;2.75;;;;;;;5.98;73.31;62616.03;5046098;28;20237;-77
2022/04/06 01:09:15;;;;;;;8.75;3.75;;;;;;;6.03;72.15;62613.59;5044228;28;20244;-77
2022/04/06 01:11:44;;;;;;;3.00;2.72;;;;;;;5.99;72.68;62611.50;5044190;28;20205;-77
2022/04/06 01:14:12;;;;;;;4.35;2.35;;;;;;;5.98;72.32;62610.97;5047322;28;20202;-77
2022/04/06 01:16:40;;;;;;;2.92;2.70;;;;;;;5.97;72.32;62615.00;5047321;28;20224;-79
2022/04/06 01:19:08;;;;;;;5.97;2.90;;;;;;;5.90;72.59;62609.81;5052505;28;20208;-77
2022/04/06 01:21:35;;;;;;;3.22;2.88;;;;;;;5.98;74.03;62613.00;5047770;28;20247;-77
2022/04/06 01:24:03;;;;;;;2.70;2.50;;;;;;;5.88;73.23;62600.69;5052753;28;20395;-78
2022/04/06 01:26:30;;;;;;;3.72;2.53;;;;;;;5.94;72.47;62611.41;5056955;28;20359;-77
2022/04/06 01:28:57;;;;;;;3.40;2.85;;;;;;;5.98;72.54;62615.50;5060907;28;20197;-78
2022/04/06 01:31:24;;;;;;;4.53;2.50;;;;;;;6.03;72.55;62618.66;5055619;28;20214;-77
2022/04/06 01:33:51;;;;;;;3.20;2.25;;;;;;;6.00;72.90;62615.06;5054836;28;20573;-77
2022/04/06 01:36:17;;;;;;;3.35;2.38;;;;;;;5.95;73.37;62610.41;5048795;28;20206;-78
2022/04/06 01:38:44;;;;;;;2.78;2.53;;;;;;;6.00;73.57;62613.03;5053489;28;20221;-77
2022/04/06 01:41:12;;;;;;;3.03;2.60;;;;;;;5.94;73.69;62604.31;5045582;28;20208;-77
2022/04/06 01:43:39;;;;;;;4.03;2.47;;;;;;;5.97;73.71;62614.50;5044542;28;20232;-78
2022/04/06 01:46:06;;;;;;;3.30;2.58;;;;;;;5.91;74.74;62608.28;5044554;28;20233;-78
2022/04/06 01:52:11;;;;;;;5.35;3.00;;;;;;;5.93;74.28;62605.81;5045287;28;20451;-78
2022/04/06 01:54:04;;;;;;;3.38;2.95;;;;;;;5.88;75.55;62603.19;5055531;28;20200;-78
2022/04/06 01:56:33;;;;;;;3.20;2.78;;;;;;;5.84;76.41;62604.66;5055937;28;20206;-78
2022/04/06 01:59:00;;;;;;;3.58;2.40;;;;;;;5.75;77.76;62592.81;5047560;28;20268;-78
2022/04/06 02:01:27;;;;;;;3.28;2.90;;;;;;;5.69;77.10;62584.09;5053964;28;20213;-78
2022/04/06 02:03:53;;;;;;;4.32;2.70;;;;;;;5.67;77.24;62584.06;5052060;28;20408;-78
2022/04/06 02:06:21;;;;;;;3.63;2.38;;;;;;;5.65;78.15;62579.47;5052887;28;20275;-79
2022/04/06 02:08:47;;;;;;;3.15;2.50;;;;;;;5.59;77.97;62573.31;5046039;28;20224;-78
2022/04/06 02:11:14;;;;;;;7.72;2.70;;;;;;;5.61;78.03;62573.34;5047008;28;20526;-77
2022/04/06 02:13:43;;;;;;;3.40;2.70;;;;;;;5.54;78.78;62568.16;5064303;28;20221;-78
2022/04/06 02:16:10;;;;;;;2.40;2.20;;;;;;;5.53;78.88;62565.09;5059044;28;20221;-77
2022/04/06 02:18:37;;;;;;;3.33;2.35;;;;;;;5.51;78.83;62565.56;5066992;28;20395;-78
2022/04/06 02:21:04;;;;;;;2.65;2.30;;;;;;;5.47;79.41;62563.97;5064097;28;20197;-78
2022/04/06 02:23:31;;;;;;;2.40;2.30;;;;;;;5.47;79.27;62561.44;5065505;28;20255;-78
2022/04/06 02:25:57;;;;;;;2.70;2.50;;;;;;;5.48;77.85;62561.97;5071090;28;20224;-80
2022/04/06 02:28:25;;;;;;;2.97;2.42;;;;;;;5.48;77.59;62565.00;5060141;28;20221;-79
2022/04/06 02:30:53;;;;;;;2.47;2.38;;;;;;;5.51;76.59;62565.56;5045557;28;20549;-79
2022/04/06 02:33:19;;;;;;;2.88;2.67;;;;;;;5.47;76.13;62560.94;5047362;28;20585;-79
2022/04/06 02:35:46;;;;;;;4.10;3.45;;;;;;;5.43;76.25;62554.28;5064435;28;20251;-79
2022/04/06 02:38:13;;;;;;;2.92;2.72;;;;;;;5.44;76.29;62560.88;5066112;28;20254;-78
2022/04/06 02:40:40;;;;;;;2.80;2.63;;;;;;;5.47;75.78;62558.91;5069209;28;20209;-78
2022/04/06 02:43:06;;;;;;;5.07;2.30;;;;;;;5.54;75.36;62565.63;5059556;28;20221;-79
2022/04/06 02:45:33;;;;;;;2.55;2.45;;;;;;;5.52;75.05;62571.66;5067900;28;20498;-79
2022/04/06 02:48:01;;;;;;;3.88;2.53;;;;;;;5.50;75.38;62566.56;5068798;28;20258;-79
2022/04/06 02:50:28;;;;;;;2.58;2.17;;;;;;;5.49;74.74;62568.03;5066472;28;20450;-79
2022/04/06 02:52:55;;;;;;;2.20;2.10;;;;;;;5.53;74.28;62572.16;5057763;28;20225;-78
2022/04/06 02:55:22;;;;;;;2.50;2.30;;;;;;;5.50;75.38;62566.56;5061914;28;20250;-80
2022/04/06 02:57:49;;;;;;;2.88;2.67;;;;;;;5.54;74.87;62566.13;5064737;28;20225;-79
2022/04/06 03:00:18;;;;;;;2.85;2.33;;;;;;;5.48;74.36;62561.97;5065503;28;20212;-78
2022/04/06 03:02:46;;;;;;;2.90;2.70;;;;;;;5.42;74.62;62558.81;5055404;28;20225;-78
2022/04/06 03:05:14;;;;;;;5.28;2.90;;;;;;;5.40;75.83;62551.22;5048556;28;20244;-78
2022/04/06 03:07:41;;;;;;;2.75;2.65;;;;;;;5.49;75.34;62565.50;5048655;28;20241;-78
2022/04/06 03:10:08;;;;;;;4.00;2.95;;;;;;;5.45;75.40;62558.88;5055840;28;20201;-78
2022/04/06 03:12:35;;;;;;;2.70;2.47;;;;;;;5.43;75.58;62554.81;5064932;28;20374;-79
2022/04/06 03:15:02;;;;;;;2.67;2.50;;;;;;;5.49;75.60;62565.50;5056156;28;20197;-78
2022/04/06 03:17:28;;;;;;;4.57;3.38;;;;;;;5.46;75.83;62559.91;5050798;28;20414;-78
2022/04/06 03:19:55;;;;;;;50.53;29.67;;;;;;;5.49;76.73;62560.97;5056954;28;20274;-78
2022/04/06 03:22:23;;;;;;;15.52;9.82;;;;;;;5.54;76.84;62568.66;5048501;28;20255;-79
2022/04/06 03:24:50;;;;;;;3.95;3.25;;;;;;;5.53;76.85;62567.63;5057595;28;20303;-78
2022/04/06 03:27:17;;;;;;;2.85;2.65;;;;;;;5.52;76.76;62561.03;5049029;28;20233;-78
2022/04/06 03:29:44;;;;;;;3.47;2.90;;;;;;;5.51;77.30;62565.06;5050805;28;20248;-78
2022/04/06 03:32:11;;;;;;;4.03;3.05;;;;;;;5.52;78.36;62569.13;5046293;28;20256;-78
2022/04/06 03:34:38;;;;;;;5.55;3.20;;;;;;;5.49;79.33;62563.50;5047405;28;20209;-78
2022/04/06 03:37:05;;;;;;;4.65;3.17;;;;;;;5.46;79.74;62560.41;5066844;28;20222;-78
2022/04/06 03:39:33;;;;;;;43.80;26.60;;;;;;;5.45;80.20;62556.34;5054024;28;20259;-78
2022/04/06 03:42:00;;;;;;;9.88;5.93;;;;;;;5.45;80.25;62556.34;5055750;28;20588;-78
2022/04/06 03:44:27;;;;;;;4.50;3.22;;;;;;;5.41;80.12;62549.69;5063101;28;20213;-79
2022/04/06 03:46:56;;;;;;;3.40;3.03;;;;;;;5.39;80.44;62550.16;5053767;28;20235;-77
2022/04/06 03:49:22;;;;;;;8.63;3.50;;;;;;;5.32;81.19;62546.00;5053674;28;20210;-75
2022/04/06 03:51:50;;;;;;;6.28;2.90;;;;;;;5.33;81.60;62544.50;5065203;28;20247;-76
2022/04/06 03:54:16;;;;;;;3.10;2.80;;;;;;;5.42;81.47;62555.78;5053276;28;20571;-76
2022/04/06 03:56:45;;;;;;;3.05;2.75;;;;;;;5.46;81.59;62562.94;5053835;28;20205;-77
2022/04/06 03:59:11;;;;;;;2.90;2.70;;;;;;;5.38;82.31;62549.66;5046337;28;20205;-76
2022/04/06 04:01:38;;;;;;;7.32;3.65;;;;;;;5.44;80.98;62558.34;5047761;28;20210;-76
2022/04/06 04:04:05;;;;;;;3.50;2.90;;;;;;;5.42;80.94;62558.28;5056458;28;20264;-77
2022/04/06 04:06:32;;;;;;;19.10;10.25;;;;;;;5.43;81.48;62556.81;5046816;28;20230;-76
2022/04/06 04:08:59;;;;;;;4.55;4.10;;;;;;;5.43;81.13;62554.81;5046151;28;20240;-77
2022/04/06 04:11:26;;;;;;;6.05;4.13;;;;;;;5.38;82.13;62551.66;5052930;28;20763;-77
2022/04/06 04:13:54;;;;;;;5.53;4.35;;;;;;;5.46;83.83;62559.91;5051557;28;20193;-77
2022/04/06 04:16:21;;;;;;;5.68;5.13;;;;;;;5.49;83.89;62563.50;5046621;28;20213;-76
2022/04/06 04:18:48;;;;;;;8.82;5.15;;;;;;;5.53;84.01;62567.13;5045547;28;20584;-76
2022/04/06 04:21:33;;;;;;;7.97;5.40;;;;;;;5.59;83.71;62571.28;5057910;28;20215;-77
2022/04/06 04:24:00;;;;;;;12.30;7.28;;;;;;;5.63;83.55;62577.41;5064566;28;20212;-78
2022/04/06 04:26:27;;;;;;;11.13;5.55;;;;;;;5.67;82.94;62582.06;5055596;28;20460;-78
2022/04/06 04:28:56;;;;;;;5.22;4.00;;;;;;;5.78;82.89;62593.38;5052563;28;20198;-79
2022/04/06 04:31:23;;;;;;;5.15;4.40;;;;;;;5.88;82.62;62606.22;5057728;28;20198;-79
2022/04/06 04:33:49;;;;;;;6.65;4.10;;;;;;;5.97;82.88;62609.94;5049925;28;20252;-79
2022/04/06 04:36:16;;;;;;;9.88;4.45;;;;;;;6.03;83.14;62618.66;5051232;28;20190;-79
2022/04/06 04:38:43;;;;;;;9.75;4.32;;;;;;;6.08;83.44;62623.81;5052552;28;20222;-78
2022/04/06 04:41:11;;;;;;;6.90;3.50;;;;;;;6.13;83.21;62628.97;5059889;28;20197;-80
2022/04/06 04:43:38;;;;;;;6.10;3.75;;;;;;;6.21;83.30;62634.16;5050964;28;20214;-80
2022/04/06 04:46:07;;;;;;;4.90;3.95;;;;;;;6.23;83.20;62636.75;5065652;28;20213;-79
2022/04/06 04:48:34;;;;;;;6.00;3.90;;;;;;;6.38;82.53;62654.22;5061606;28;20525;-79
2022/04/06 04:51:01;;;;;;;10.15;5.03;;;;;;;6.39;81.98;62657.78;5068267;28;20220;-79
2022/04/06 04:53:28;;;;;;;9.85;6.00;;;;;;;6.55;79.50;62674.81;5075018;28;20224;-79
2022/04/06 04:55:55;;;;;;;7.65;6.15;;;;;;;6.45;79.45;62661.44;5064587;28;20202;-78
2022/04/06 04:58:21;;;;;;;6.85;6.15;;;;;;;6.54;80.35;62670.72;5052785;28;20225;-79
2022/04/06 05:00:49;;;;;;;9.60;6.60;;;;;;;6.68;79.70;62685.66;5069724;28;20219;-78
2022/04/06 05:03:17;;;;;;;9.95;6.85;;;;;;;6.67;78.83;62684.13;5062705;28;20218;-79
2022/04/06 05:05:44;;;;;;;13.73;7.03;;;;;;;6.58;79.53;62672.31;5053891;28;20220;-79
2022/04/06 05:08:11;;;;;;;10.48;6.75;;;;;;;6.62;80.36;62676.97;5056628;28;20287;-79
2022/04/06 05:10:38;;;;;;;10.38;7.15;;;;;;;6.63;81.03;62685.06;5058525;28;20202;-80
2022/04/06 05:13:05;;;;;;;16.73;6.80;;;;;;;6.52;81.42;62663.59;5059731;28;20301;-79
2022/04/06 05:15:32;;;;;;;20.55;8.57;;;;;;;6.55;83.26;62671.75;5065911;28;20213;-79
2022/04/06 05:17:59;;;;;;;15.68;8.77;;;;;;;6.81;83.16;62701.09;5057954;28;20255;-79
2022/04/06 05:20:27;;;;;;;16.83;7.30;;;;;;;6.90;80.97;62710.38;5071235;28;20201;-80
2022/04/06 05:22:54;;;;;;;19.02;9.00;;;;;;;6.77;81.37;62686.84;5064235;28;20221;-78
2022/04/06 05:25:21;;;;;;;11.45;8.65;;;;;;;6.78;80.68;62695.47;5068231;28;20197;-78
2022/04/06 05:27:50;;;;;;;19.10;8.23;;;;;;;6.73;82.88;62688.28;5073996;28;20244;-78
2022/04/06 05:30:18;;;;;;;13.98;8.38;;;;;;;7.12;81.50;62727.50;5062361;28;20197;-77
2022/04/06 05:32:46;;;;;;;26.02;9.40;;;;;;;7.32;80.13;62748.66;5053647;28;20240;-78
2022/04/06 05:35:14;;;;;;;18.88;8.88;;;;;;;7.35;78.69;62758.84;5066927;28;20220;-78
2022/04/06 05:37:43;;;;;;;22.45;8.63;;;;;;;7.44;77.49;62770.66;5056517;28;20463;-79
2022/04/06 05:40:13;;;;;;;10.13;8.70;;;;;;;7.55;76.88;62771.88;5063610;28;20502;-77
2022/04/06 05:42:40;;;;;;;14.35;7.85;;;;;;;7.58;76.74;62775.47;5065471;28;20609;-79
2022/04/06 05:45:09;;;;;;;13.73;8.52;;;;;;;7.69;78.33;62791.38;5060056;28;20273;-79
2022/04/06 05:47:37;;;;;;;17.15;8.68;;;;;;;7.60;78.31;62777.03;5052586;28;20252;-79
2022/04/06 05:50:06;;;;;;;22.63;10.55;;;;;;;7.77;79.00;62797.09;5045664;28;20244;-79
2022/04/06 05:52:33;;;;;;;26.92;9.48;;;;;;;7.88;78.32;62811.00;5048155;28;20218;-78
2022/04/06 05:55:02;;;;;;;28.55;10.10;;;;;;;8.12;77.67;62833.78;5046688;28;20367;-78
2022/04/06 05:57:29;;;;;;;17.17;9.60;;;;;;;8.19;75.93;62841.00;5058277;28;20268;-79
2022/04/06 05:59:56;;;;;;;21.00;8.63;;;;;;;8.03;75.92;62821.41;5067373;28;20197;-79
2022/04/06 06:02:24;;;;;;;19.38;10.15;;;;;;;7.92;76.50;62813.09;5074926;28;20229;-79
2022/04/06 06:04:51;;;;;;;14.10;8.52;;;;;;;8.11;76.47;62837.31;5046984;28;20202;-79
2022/04/06 06:07:20;;;;;;;28.60;9.68;;;;;;;8.06;76.59;62825.03;5066540;28;20233;-78
2022/04/06 06:09:47;;;;;;;19.98;9.48;;;;;;;8.08;76.87;62829.63;5066906;28;20197;-79
2022/04/06 06:12:16;;;;;;;22.67;10.38;;;;;;;8.05;77.03;62826.03;5064468;28;20213;-78
2022/04/06 06:14:43;;;;;;;16.10;8.88;;;;;;;8.04;77.69;62828.03;5051696;28;20205;-79
2022/04/06 06:17:10;;;;;;;21.65;9.68;;;;;;;8.11;78.05;62835.25;5068264;28;20240;-79
2022/04/06 06:19:36;;;;;;;17.73;8.30;;;;;;;8.23;77.26;62844.09;5065473;28;20190;-78
2022/04/06 06:22:04;;;;;;;16.85;8.35;;;;;;;8.48;76.71;62872.47;5069259;28;20221;-78
2022/04/06 06:24:32;;;;;;;20.13;9.35;;;;;;;8.72;74.37;62895.25;5060333;28;20241;-78
2022/04/06 06:26:59;;;;;;;10.38;6.90;;;;;;;8.82;72.99;62905.06;5083038;28;20228;-78
2022/04/06 06:29:27;;;;;;;15.32;8.77;;;;;;;8.98;71.66;62921.59;5063910;28;20198;-78
2022/04/06 06:31:55;;;;;;;11.00;7.72;;;;;;;8.78;71.46;62901.47;5047440;28;20217;-77
2022/04/06 06:34:22;;;;;;;13.55;9.15;;;;;;;8.74;71.50;62897.31;5052518;28;20209;-77
2022/04/06 06:36:49;;;;;;;17.13;8.20;;;;;;;8.90;71.64;62913.84;5051139;28;20233;-79
2022/04/06 06:39:16;;;;;;;26.42;8.38;;;;;;;9.05;70.42;62929.34;5062570;28;20560;-80
2022/04/06 06:41:43;;;;;;;15.32;8.50;;;;;;;9.14;70.34;62938.66;5048808;28;20256;-80
2022/04/06 06:44:10;;;;;;;16.38;8.80;;;;;;;9.24;70.23;62951.53;5050638;28;20197;-79
2022/04/06 06:46:40;;;;;;;11.05;9.40;;;;;;;9.36;69.75;62965.97;5064455;28;20190;-80
2022/04/06 06:49:07;;;;;;;12.20;9.13;;;;;;;9.54;69.85;62979.50;5049269;28;20256;-80
2022/04/06 06:51:34;;;;;;;16.38;8.88;;;;;;;9.59;68.33;62984.66;5049352;28;20366;-79
2022/04/06 06:54:01;;;;;;;15.25;9.27;;;;;;;9.58;68.65;62985.66;5069222;28;20197;-78
2022/04/06 06:56:28;;;;;;;20.83;8.90;;;;;;;9.45;68.14;62969.66;5065527;28;20202;-79
2022/04/06 06:58:55;;;;;;;16.88;9.85;;;;;;;9.52;69.13;62976.91;5052225;28;20212;-80
2022/04/06 07:01:22;;;;;;;19.17;8.75;;;;;;;9.68;67.43;62993.47;5067760;28;20205;-79
2022/04/06 07:03:51;;;;;;;15.27;8.88;;;;;;;9.58;68.12;62983.63;5065597;28;20213;-81
2022/04/06 07:06:18;;;;;;;14.60;8.85;;;;;;;9.62;66.93;62989.78;5052754;28;20204;-79
2022/04/06 07:08:45;;;;;;;12.15;7.60;;;;;;;9.75;65.02;63003.25;5055288;28;20233;-79
2022/04/06 07:11:12;;;;;;;12.32;7.28;;;;;;;9.96;65.14;63019.84;5064424;28;20254;-79
2022/04/06 07:13:39;;;;;;;9.00;6.82;;;;;;;10.00;62.27;63026.53;5062163;28;20272;-78
2022/04/06 07:16:06;;;;;;;9.45;7.20;;;;;;;10.10;62.12;63034.38;5061522;28;20198;-79
2022/04/06 07:18:33;;;;;;;11.30;6.15;;;;;;;9.99;61.41;63026.03;5057501;28;20221;-79
2022/04/06 07:21:02;;;;;;;13.80;7.10;;;;;;;10.19;61.72;63051.84;5065541;28;21131;-78
2022/04/06 07:23:29;;;;;;;14.50;6.85;;;;;;;10.47;60.00;63077.75;5065774;28;20541;-78
2022/04/06 07:25:56;;;;;;;10.82;6.03;;;;;;;10.65;58.99;63095.88;5076611;28;20246;-78
2022/04/06 07:28:23;;;;;;;9.25;6.40;;;;;;;10.69;58.94;63097.97;5090740;28;20261;-79
2022/04/06 07:30:49;;;;;;;15.30;7.35;;;;;;;10.86;58.79;63115.03;5082773;28;20201;-78
2022/04/06 07:33:16;;;;;;;11.68;7.50;;;;;;;10.87;57.94;63118.63;5050982;28;20226;-78
2022/04/06 07:35:43;;;;;;;16.77;6.75;;;;;;;10.81;58.58;63110.38;5051476;28;20397;-79
2022/04/06 07:38:12;;;;;;;13.98;5.97;;;;;;;10.94;57.97;63123.84;5063437;28;20259;-78
2022/04/06 07:40:40;;;;;;;9.10;5.85;;;;;;;11.11;57.43;63146.53;5062071;28;20230;-78
2022/04/06 07:43:07;;;;;;;15.90;6.05;;;;;;;11.15;57.18;63145.59;5051655;28;20218;-78
2022/04/06 07:45:35;;;;;;;14.52;5.78;;;;;;;11.33;56.94;63169.34;5051107;28;20205;-78
2022/04/06 07:48:04;;;;;;;6.93;5.70;;;;;;;11.46;56.34;63179.72;5062655;28;20562;-78
2022/04/06 07:50:30;;;;;;;8.50;5.40;;;;;;;11.15;55.31;63145.06;5071736;28;20204;-78
2022/04/06 07:52:57;;;;;;;12.95;5.63;;;;;;;11.23;56.13;63148.25;5068466;28;20237;-77
2022/04/06 07:55:25;;;;;;;7.60;5.15;;;;;;;11.25;55.82;63152.88;5064442;28;20200;-78
2022/04/06 07:57:52;;;;;;;12.07;5.40;;;;;;;11.51;56.83;63182.88;5052008;28;20230;-78
2022/04/06 08:00:20;;;;;;;9.70;5.45;;;;;;;11.68;54.60;63200.00;5064670;28;20199;-78
2022/04/06 08:02:48;;;;;;;6.43;4.78;;;;;;;11.83;54.10;63215.53;5070291;28;20217;-79
2022/04/06 08:05:16;;;;;;;9.80;5.90;;;;;;;11.92;54.30;63224.34;5060405;28;20198;-79
2022/04/06 08:07:44;;;;;;;7.47;5.90;;;;;;;11.95;53.97;63230.00;5051435;28;20248;-78
2022/04/06 08:10:13;;;;;;;11.60;5.05;;;;;;;12.18;52.51;63251.78;5052437;28;20392;-79
2022/04/06 08:12:41;;;;;;;11.07;6.22;;;;;;;12.31;51.99;63265.28;5069905;28;20231;-78
2022/04/06 08:15:09;;;;;;;6.13;4.60;;;;;;;12.45;51.92;63279.25;5054996;28;20218;-78
2022/04/06 08:17:37;;;;;;;6.13;4.97;;;;;;;12.34;50.56;63267.84;5069498;28;20494;-78
2022/04/06 08:20:06;;;;;;;11.50;5.55;;;;;;;12.33;51.36;63267.34;5062073;28;20194;-79
2022/04/06 08:22:33;;;;;;;8.50;5.00;;;;;;;12.36;50.22;63272.47;5049518;28;20222;-78
2022/04/06 08:24:59;;;;;;;7.07;4.63;;;;;;;12.36;50.24;63272.47;5068743;28;20205;-78
2022/04/06 08:27:27;;;;;;;6.47;3.92;;;;;;;12.56;49.75;63290.69;5082599;28;20221;-78
2022/04/06 08:29:56;;;;;;;9.40;4.82;;;;;;;12.85;48.60;63323.31;5072133;28;20201;-78
2022/04/06 08:32:23;;;;;;;7.78;3.63;;;;;;;13.05;49.31;63346.09;5066038;28;20228;-79
2022/04/06 08:34:50;;;;;;;7.57;4.38;;;;;;;13.27;48.06;63366.38;5070864;28;20197;-78
2022/04/06 08:37:16;;;;;;;9.18;4.05;;;;;;;13.15;47.26;63351.38;5070028;28;20272;-78
2022/04/06 08:39:43;;;;;;;8.98;3.60;;;;;;;13.24;47.18;63363.75;5072005;28;20209;-78
2022/04/06 08:42:11;;;;;;;4.28;3.92;;;;;;;13.37;47.04;63376.75;5055356;28;20217;-78
2022/04/06 08:44:38;;;;;;;4.35;3.78;;;;;;;13.58;47.30;63396.47;5047897;28;20198;-78
2022/04/06 08:47:07;;;;;;;5.85;4.15;;;;;;;13.52;45.65;63392.81;5047911;28;20230;-78
2022/04/06 08:49:36;;;;;;;6.50;3.80;;;;;;;13.40;45.73;63380.38;5047935;28;20264;-77
2022/04/06 08:52:04;;;;;;;5.55;3.90;;;;;;;13.39;45.25;63376.25;5066997;28;20245;-78
2022/04/06 08:54:32;;;;;;;5.10;3.72;;;;;;;13.56;45.19;63399.00;5058686;28;20232;-78
2022/04/06 08:56:59;;;;;;;4.97;4.03;;;;;;;13.73;45.42;63411.53;5052719;28;20225;-78
2022/04/06 08:59:26;;;;;;;4.95;3.72;;;;;;;14.03;45.10;63442.16;5057463;28;20201;-77
2022/04/06 09:01:53;;;;;;;5.95;4.00;;;;;;;14.25;44.21;63468.09;5068940;28;20285;-79
2022/04/06 09:04:23;;;;;;;6.07;4.47;;;;;;;14.30;43.14;63470.72;5067909;28;20205;-78
2022/04/06 09:06:50;;;;;;;9.05;4.30;;;;;;;14.41;42.81;63482.16;5067965;28;20221;-79
2022/04/06 09:09:24;;;;;;;7.85;4.07;;;;;;;14.33;43.58;63473.84;5065366;28;20259;-78
2022/04/06 09:11:51;;;;;;;6.57;4.45;;;;;;;14.50;43.40;63488.41;5069584;28;20213;-78
2022/04/06 09:14:30;;;;;;;7.18;3.88;;;;;;;14.52;42.07;63498.69;5064963;28;20277;-78
2022/04/06 09:17:02;;;;;;;4.07;3.78;;;;;;;14.65;43.18;63507.06;5066108;28;20262;-78
2022/04/06 09:19:31;;;;;;;10.25;3.60;;;;;;;14.81;42.71;63525.72;5055011;28;20240;-78
2022/04/06 09:21:58;;;;;;;8.32;3.13;;;;;;;14.88;41.20;63530.44;5055471;28;20236;-78
2022/04/06 09:24:26;;;;;;;4.10;3.47;;;;;;;14.88;40.82;63533.00;5057067;28;20255;-78
2022/04/06 09:26:57;;;;;;;6.28;3.70;;;;;;;14.93;40.04;63535.63;5054718;28;20283;-78
2022/04/06 09:29:24;;;;;;;5.57;3.80;;;;;;;14.82;40.64;63526.78;5049009;28;20252;-77
2022/04/06 09:31:52;;;;;;;10.00;3.40;;;;;;;14.89;40.45;63534.06;5060593;28;20229;-78
2022/04/06 09:34:22;;;;;;;7.47;3.50;;;;;;;14.90;39.85;63532.53;5057161;28;20194;-78
2022/04/06 09:36:56;;;;;;;5.22;3.92;;;;;;;15.06;39.02;63547.09;5044768;28;20293;-79
2022/04/06 09:39:43;;;;;;;5.63;3.70;;;;;;;15.13;37.90;63556.44;5050768;28;20197;-78
2022/04/06 09:42:10;;;;;;;4.20;3.80;;;;;;;14.92;37.88;63537.16;5064759;28;20228;-79
2022/04/06 09:47:40;;;;;;;7.63;4.05;;;;;;;15.18;38.75;63561.09;5018621;28;20229;-78
2022/04/06 09:50:19;;;;;;;4.22;3.72;;;;;;;15.40;38.52;63583.97;5051353;28;20287;-79
2022/04/06 09:52:48;;;;;;;4.80;3.60;;;;;;;15.51;38.60;63601.06;5057814;28;20216;-78
2022/04/06 09:55:17;;;;;;;4.30;4.00;;;;;;;15.56;38.33;63603.19;5065430;28;20517;-79
2022/04/06 09:57:47;;;;;;;4.22;3.40;;;;;;;15.73;37.56;63621.38;5050749;28;20418;-77
2022/04/06 10:00:19;;;;;;;7.97;3.28;;;;;;;15.82;38.58;63630.75;5046578;28;20201;-78
2022/04/06 10:02:48;;;;;;;4.60;3.17;;;;;;;16.05;38.48;63659.25;5048399;28;20225;-78
2022/04/06 10:05:18;;;;;;;2.80;2.60;;;;;;;16.10;35.78;63659.34;5049647;28;20213;-78
2022/04/06 10:07:45;;;;;;;4.45;3.03;;;;;;;16.14;36.49;63664.00;5056087;28;20243;-78
2022/04/06 10:10:14;;;;;;;8.20;3.10;;;;;;;16.07;35.89;63658.75;5045831;28;20423;-78
2022/04/06 10:12:41;;;;;;;10.80;3.58;;;;;;;16.14;36.43;63668.63;5047624;28;20605;-77
2022/04/06 10:15:09;;;;;;;12.60;3.40;;;;;;;16.01;36.17;63649.97;5047893;28;20197;-78
2022/04/06 10:17:36;;;;;;;5.70;3.08;;;;;;;15.93;36.73;63641.63;5044515;28;20423;-78
2022/04/06 10:20:21;;;;;;;3.95;2.65;;;;;;;16.00;35.74;63646.88;5050545;28;20209;-78
2022/04/06 10:23:12;;;;;;;5.47;3.30;;;;;;;16.22;35.45;63673.84;5055452;28;20216;-78
2022/04/06 10:25:52;;;;;;;7.07;2.60;;;;;;;16.35;35.08;63687.38;5059634;28;20189;-78
2022/04/06 10:28:23;;;;;;;3.08;2.80;;;;;;;16.54;35.74;63702.00;5051479;28;20260;-78
2022/04/06 10:31:18;;;;;;;4.28;2.50;;;;;;;16.30;35.63;63680.13;5048591;28;20209;-79
2022/04/06 10:33:45;;;;;;;4.65;2.47;;;;;;;16.48;37.10;63698.34;5023114;28;20251;-77
2022/04/06 10:36:20;;;;;;;4.15;3.10;;;;;;;16.33;35.58;63682.72;5053750;28;20205;-78
2022/04/06 10:39:16;;;;;;;3.00;2.80;;;;;;;16.34;35.91;63689.44;5053192;28;20224;-79
2022/04/06 10:42:15;;;;;;;5.75;2.45;;;;;;;16.46;35.80;63694.22;5040291;28;20205;-79
2022/04/06 10:44:43;;;;;;;4.72;2.20;;;;;;;16.53;35.57;63700.97;5051993;28;20201;-79
2022/04/06 10:47:11;;;;;;;3.08;2.60;;;;;;;16.64;35.74;63720.66;5058720;28;20406;-79
2022/04/06 10:49:39;;;;;;;3.25;2.90;;;;;;;16.59;34.81;63717.50;5049235;28;20286;-79
2022/04/06 10:52:27;;;;;;;2.28;2.13;;;;;;;16.58;34.96;63704.13;5046759;28;20236;-78
2022/04/06 10:54:54;;;;;;;2.83;2.63;;;;;;;16.73;35.71;63727.44;5045405;28;20201;-78
2022/04/06 10:57:22;;;;;;;2.63;2.30;;;;;;;16.94;37.60;63749.31;5060402;28;20234;-79
2022/04/06 11:00:16;;;;;;;3.10;2.83;;;;;;;17.20;35.12;63773.28;5050227;28;20238;-78
2022/04/06 11:02:51;;;;;;;4.70;2.75;;;;;;;17.25;35.53;63779.00;5053463;28;20229;-79
2022/04/06 11:05:49;;;;;;;3.03;2.60;;;;;;;17.23;33.81;63779.50;5057790;28;20216;-79
2022/04/06 11:11:42;;;;;;;6.85;2.33;;;;;;;17.27;34.61;63781.06;5045868;28;20536;-78
2022/04/06 11:14:11;;;;;;;5.47;2.83;;;;;;;17.37;33.53;63790.97;5044311;28;20201;-78
2022/04/06 11:16:46;;;;;;;3.15;2.85;;;;;;;17.15;34.14;63768.06;5045742;28;20201;-78
2022/04/06 11:19:14;;;;;;;3.15;2.95;;;;;;;17.17;35.22;63772.72;5060082;28;20259;-78
2022/04/06 11:21:52;;;;;;;3.70;3.40;;;;;;;17.47;35.10;63800.88;5046637;28;20478;-78
2022/04/06 11:24:21;;;;;;;3.22;2.72;;;;;;;17.43;35.61;63796.69;5050656;28;20197;-79
2022/04/06 11:26:48;;;;;;;3.20;3.00;;;;;;;17.53;33.80;63804.56;5064635;28;20212;-79
2022/04/06 11:29:17;;;;;;;4.82;2.92;;;;;;;17.61;34.51;63813.41;5061180;28;20506;-79
2022/04/06 11:31:59;;;;;;;3.70;2.47;;;;;;;17.66;33.80;63821.19;5063334;28;20208;-79
2022/04/06 11:34:37;;;;;;;2.72;2.53;;;;;;;17.65;34.30;63820.16;5047089;28;20189;-79
2022/04/06 11:37:05;;;;;;;2.47;2.28;;;;;;;17.68;35.04;63823.28;5047240;28;20560;-79
2022/04/06 11:39:32;;;;;;;3.83;2.53;;;;;;;17.85;36.01;63843.53;5044677;28;20499;-79
2022/04/06 11:42:01;;;;;;;3.58;2.60;;;;;;;17.99;35.45;63855.56;5044767;28;20263;-78
2022/04/06 11:44:30;;;;;;;3.30;2.85;;;;;;;18.15;33.91;63874.28;5045714;28;20205;-78
2022/04/06 11:46:57;;;;;;;4.35;2.53;;;;;;;18.38;33.25;63895.66;5051660;28;20225;-78
2022/04/06 11:49:26;;;;;;;2.83;2.50;;;;;;;18.55;34.06;63910.28;5056911;28;20237;-78
2022/04/06 11:51:54;;;;;;;3.22;2.47;;;;;;;18.51;33.41;63911.81;5050266;28;20595;-79
2022/04/06 11:54:22;;;;;;;5.47;2.58;;;;;;;18.45;32.61;63905.03;5047906;28;20201;-79